New York, New York
Traffic Map
Current Weather Conditions
New York, New York
Clear
Clear
12°
Feels Like: 12°
Wind Chill: 12° Ceiling: Unl
Heat Index: 12° Visibility: 10mi
Dew Point: -4° Wind: 10mph
Humidity: 33% Direction: 70° (ENE)
Pressure: 30.23in Gusts: 0mph
Raw Report DataKNYC 191051Z AUTO 07009KT 10SM CLR 12/M04 A3023 RMK AO2 SLP228 T01221039 $
Traffic Incident Summary
Active as of:
Severity:
Category:
InformationThere was an issue retrieving the traffic information for this location. Please try a different location or try again shortly.
Advertisements
Track Severe Weather on mobile